sensor_id;sensor_type;location;lat;lon;timestamp;pressure;altitude;pressure_sealevel;temperature;humidity
70393;BME280;57812;59.294;18.084;2022-07-04T00:00:57;101026.05;;;31.05;20.69
70393;BME280;57812;59.294;18.084;2022-07-04T00:03:23;101025.33;;;30.42;20.68
70393;BME280;57812;59.294;18.084;2022-07-04T00:05:49;101022.49;;;30.35;20.81
70393;BME280;57812;59.294;18.084;2022-07-04T00:08:15;101024.55;;;30.83;20.95
70393;BME280;57812;59.294;18.084;2022-07-04T00:10:41;101022.99;;;30.07;20.93
70393;BME280;57812;59.294;18.084;2022-07-04T00:13:06;101020.41;;;30.89;20.62
70393;BME280;57812;59.294;18.084;2022-07-04T00:15:32;101017.02;;;30.50;20.75
70393;BME280;57812;59.294;18.084;2022-07-04T00:17:58;101017.39;;;30.57;20.88
70393;BME280;57812;59.294;18.084;2022-07-04T00:20:24;101015.93;;;30.80;20.74
70393;BME280;57812;59.294;18.084;2022-07-04T00:22:50;101018.37;;;30.24;20.96
70393;BME280;57812;59.294;18.084;2022-07-04T00:25:16;101018.25;;;30.30;20.90
70393;BME280;57812;59.294;18.084;2022-07-04T00:27:41;101014.89;;;30.60;20.90
70393;BME280;57812;59.294;18.084;2022-07-04T00:30:08;101016.99;;;30.31;20.92
70393;BME280;57812;59.294;18.084;2022-07-04T00:32:33;101013.99;;;30.60;20.83
70393;BME280;57812;59.294;18.084;2022-07-04T00:34:59;101011.11;;;30.69;20.90
70393;BME280;57812;59.294;18.084;2022-07-04T00:37:25;101004.81;;;30.55;20.68
70393;BME280;57812;59.294;18.084;2022-07-04T00:39:51;101001.10;;;30.60;20.89
70393;BME280;57812;59.294;18.084;2022-07-04T00:42:17;101004.53;;;30.35;20.69
70393;BME280;57812;59.294;18.084;2022-07-04T00:44:43;101003.14;;;30.71;21.06
70393;BME280;57812;59.294;18.084;2022-07-04T00:47:09;100999.94;;;30.30;20.97
70393;BME280;57812;59.294;18.084;2022-07-04T00:49:35;101001.09;;;30.67;20.87
70393;BME280;57812;59.294;18.084;2022-07-04T00:52:01;101001.09;;;30.69;20.87
70393;BME280;57812;59.294;18.084;2022-07-04T00:54:27;101000.56;;;30.24;21.01
70393;BME280;57812;59.294;18.084;2022-07-04T00:56:52;100996.45;;;30.55;20.97
70393;BME280;57812;59.294;18.084;2022-07-04T00:59:18;100994.94;;;30.15;20.97
70393;BME280;57812;59.294;18.084;2022-07-04T01:01:43;100991.30;;;30.22;21.09
70393;BME280;57812;59.294;18.084;2022-07-04T01:04:10;100989.55;;;30.12;21.15
70393;BME280;57812;59.294;18.084;2022-07-04T01:06:36;100983.94;;;30.02;21.04
70393;BME280;57812;59.294;18.084;2022-07-04T01:09:01;100985.34;;;30.19;21.11
70393;BME280;57812;59.294;18.084;2022-07-04T01:11:27;100987.02;;;30.88;20.95
70393;BME280;57812;59.294;18.084;2022-07-04T01:13:53;100984.34;;;30.74;21.01
70393;BME280;57812;59.294;18.084;2022-07-04T01:16:19;100983.87;;;29.98;21.05
70393;BME280;57812;59.294;18.084;2022-07-04T01:18:44;100984.50;;;30.66;20.88
70393;BME280;57812;59.294;18.084;2022-07-04T01:21:11;100982.80;;;30.45;21.02
70393;BME280;57812;59.294;18.084;2022-07-04T01:23:37;100981.43;;;30.78;20.95
70393;BME280;57812;59.294;18.084;2022-07-04T01:26:02;100981.85;;;30.57;20.91
70393;BME280;57812;59.294;18.084;2022-07-04T01:28:28;100980.63;;;30.20;20.99
70393;BME280;57812;59.294;18.084;2022-07-04T01:30:54;100982.53;;;29.99;21.16
70393;BME280;57812;59.294;18.084;2022-07-04T01:33:20;100976.29;;;30.66;21.06
70393;BME280;57812;59.294;18.084;2022-07-04T01:35:46;100975.97;;;30.12;21.12
70393;BME280;57812;59.294;18.084;2022-07-04T01:38:11;100973.87;;;30.27;20.98
70393;BME280;57812;59.294;18.084;2022-07-04T01:40:37;100970.49;;;30.56;20.88
70393;BME280;57812;59.294;18.084;2022-07-04T01:43:03;100970.91;;;30.08;21.11
70393;BME280;57812;59.294;18.084;2022-07-04T01:45:29;100969.11;;;30.21;21.00
70393;BME280;57812;59.294;18.084;2022-07-04T01:47:55;100966.14;;;30.50;20.93
70393;BME280;57812;59.294;18.084;2022-07-04T01:50:21;100963.82;;;30.27;20.90
70393;BME280;57812;59.294;18.084;2022-07-04T01:52:46;100965.93;;;30.36;21.24
70393;BME280;57812;59.294;18.084;2022-07-04T01:55:13;100962.84;;;29.52;21.30
70393;BME280;57812;59.294;18.084;2022-07-04T01:57:38;100965.19;;;30.34;20.97
70393;BME280;57812;59.294;18.084;2022-07-04T02:00:06;100964.97;;;30.44;21.02
70393;BME280;57812;59.294;18.084;2022-07-04T02:02:30;100965.17;;;29.99;21.01
70393;BME280;57812;59.294;18.084;2022-07-04T02:04:56;100960.76;;;29.97;20.97
70393;BME280;57812;59.294;18.084;2022-07-04T02:07:22;100965.29;;;30.36;21.00
70393;BME280;57812;59.294;18.084;2022-07-04T02:09:47;100961.31;;;30.76;20.63
70393;BME280;57812;59.294;18.084;2022-07-04T02:12:13;100960.92;;;30.71;20.62
70393;BME280;57812;59.294;18.084;2022-07-04T02:14:39;100958.48;;;30.46;20.62
70393;BME280;57812;59.294;18.084;2022-07-04T02:17:05;100957.83;;;29.94;20.86
70393;BME280;57812;59.294;18.084;2022-07-04T02:19:31;100955.03;;;30.52;20.73
70393;BME280;57812;59.294;18.084;2022-07-04T02:21:57;100956.97;;;30.21;20.62
70393;BME280;57812;59.294;18.084;2022-07-04T02:24:22;100956.96;;;29.97;20.80
70393;BME280;57812;59.294;18.084;2022-07-04T02:26:49;100953.34;;;30.51;20.69
70393;BME280;57812;59.294;18.084;2022-07-04T02:29:15;100950.87;;;29.86;20.65
70393;BME280;57812;59.294;18.084;2022-07-04T02:31:40;100951.34;;;30.40;20.57
70393;BME280;57812;59.294;18.084;2022-07-04T02:34:06;100948.96;;;30.24;20.85
70393;BME280;57812;59.294;18.084;2022-07-04T02:36:32;100949.25;;;30.68;20.50
70393;BME280;57812;59.294;18.084;2022-07-04T02:38:58;100948.31;;;30.46;20.67
70393;BME280;57812;59.294;18.084;2022-07-04T02:41:23;100948.01;;;30.25;20.82
70393;BME280;57812;59.294;18.084;2022-07-04T02:43:49;100952.24;;;30.06;20.62
70393;BME280;57812;59.294;18.084;2022-07-04T02:46:15;100953.16;;;30.34;20.59
70393;BME280;57812;59.294;18.084;2022-07-04T02:48:41;100948.16;;;29.98;20.70
70393;BME280;57812;59.294;18.084;2022-07-04T02:51:07;100946.47;;;30.05;20.69
70393;BME280;57812;59.294;18.084;2022-07-04T02:53:33;100945.29;;;30.26;20.75
70393;BME280;57812;59.294;18.084;2022-07-04T02:55:58;100941.83;;;30.33;20.72
70393;BME280;57812;59.294;18.084;2022-07-04T02:58:24;100936.46;;;30.37;20.70
70393;BME280;57812;59.294;18.084;2022-07-04T03:00:50;100932.50;;;30.13;20.69
70393;BME280;57812;59.294;18.084;2022-07-04T03:03:16;100931.18;;;30.33;20.73
70393;BME280;57812;59.294;18.084;2022-07-04T03:05:42;100926.25;;;30.42;20.85
70393;BME280;57812;59.294;18.084;2022-07-04T03:08:08;100922.20;;;30.53;20.77
70393;BME280;57812;59.294;18.084;2022-07-04T03:10:34;100915.46;;;30.57;20.76
70393;BME280;57812;59.294;18.084;2022-07-04T03:12:59;100909.04;;;30.25;20.68
70393;BME280;57812;59.294;18.084;2022-07-04T03:15:26;100909.52;;;30.30;21.02
70393;BME280;57812;59.294;18.084;2022-07-04T03:17:51;100908.09;;;30.50;20.66
70393;BME280;57812;59.294;18.084;2022-07-04T03:20:17;100914.29;;;30.40;20.75
70393;BME280;57812;59.294;18.084;2022-07-04T03:22:43;100910.18;;;30.57;20.81
70393;BME280;57812;59.294;18.084;2022-07-04T03:25:09;100906.25;;;30.43;20.78
70393;BME280;57812;59.294;18.084;2022-07-04T03:27:35;100905.00;;;30.17;21.02
70393;BME280;57812;59.294;18.084;2022-07-04T03:30:00;100901.21;;;30.27;20.94
70393;BME280;57812;59.294;18.084;2022-07-04T03:32:26;100895.48;;;30.41;21.07
70393;BME280;57812;59.294;18.084;2022-07-04T03:34:52;100892.24;;;29.56;21.23
70393;BME280;57812;59.294;18.084;2022-07-04T03:37:18;100891.89;;;29.47;21.03
70393;BME280;57812;59.294;18.084;2022-07-04T03:39:44;100889.56;;;30.16;21.02
70393;BME280;57812;59.294;18.084;2022-07-04T03:42:10;100890.37;;;30.54;20.92
70393;BME280;57812;59.294;18.084;2022-07-04T03:44:35;100889.87;;;30.47;21.17
70393;BME280;57812;59.294;18.084;2022-07-04T03:47:01;100891.31;;;30.00;21.27
70393;BME280;57812;59.294;18.084;2022-07-04T03:49:27;100894.81;;;30.11;21.17
70393;BME280;57812;59.294;18.084;2022-07-04T03:51:53;100895.25;;;30.32;21.26
70393;BME280;57812;59.294;18.084;2022-07-04T03:54:19;100892.78;;;30.26;21.30
70393;BME280;57812;59.294;18.084;2022-07-04T03:56:45;100888.51;;;30.81;21.09
70393;BME280;57812;59.294;18.084;2022-07-04T03:59:11;100888.04;;;30.32;21.32
70393;BME280;57812;59.294;18.084;2022-07-04T04:01:37;100889.47;;;30.13;21.57
70393;BME280;57812;59.294;18.084;2022-07-04T04:04:03;100886.31;;;30.09;21.38
70393;BME280;57812;59.294;18.084;2022-07-04T04:06:29;100888.33;;;30.18;21.49
70393;BME280;57812;59.294;18.084;2022-07-04T04:08:54;100883.78;;;29.85;21.46
70393;BME280;57812;59.294;18.084;2022-07-04T04:11:20;100880.60;;;30.59;21.43
70393;BME280;57812;59.294;18.084;2022-07-04T04:13:46;100873.45;;;30.30;21.57
70393;BME280;57812;59.294;18.084;2022-07-04T04:16:12;100874.42;;;30.28;21.38
70393;BME280;57812;59.294;18.084;2022-07-04T04:18:38;100870.42;;;30.09;21.84
70393;BME280;57812;59.294;18.084;2022-07-04T04:21:04;100864.85;;;29.85;21.65
70393;BME280;57812;59.294;18.084;2022-07-04T04:23:29;100862.45;;;30.47;21.53
70393;BME280;57812;59.294;18.084;2022-07-04T04:25:55;100864.42;;;29.60;21.98
70393;BME280;57812;59.294;18.084;2022-07-04T04:28:21;100864.68;;;30.28;21.57
70393;BME280;57812;59.294;18.084;2022-07-04T04:30:47;100862.36;;;30.08;21.74
70393;BME280;57812;59.294;18.084;2022-07-04T04:33:13;100861.02;;;29.95;21.88
70393;BME280;57812;59.294;18.084;2022-07-04T04:35:39;100858.40;;;30.92;21.67
70393;BME280;57812;59.294;18.084;2022-07-04T04:38:04;100856.69;;;30.50;21.69
70393;BME280;57812;59.294;18.084;2022-07-04T04:40:30;100856.91;;;30.50;21.73
70393;BME280;57812;59.294;18.084;2022-07-04T04:42:56;100858.94;;;30.36;21.88
70393;BME280;57812;59.294;18.084;2022-07-04T04:45:22;100859.10;;;30.58;21.84
70393;BME280;57812;59.294;18.084;2022-07-04T04:47:48;100862.39;;;30.72;21.85
70393;BME280;57812;59.294;18.084;2022-07-04T04:50:14;100864.98;;;30.50;21.95
70393;BME280;57812;59.294;18.084;2022-07-04T04:52:39;100860.87;;;30.54;22.22
70393;BME280;57812;59.294;18.084;2022-07-04T04:55:05;100863.12;;;30.51;22.37
70393;BME280;57812;59.294;18.084;2022-07-04T04:57:31;100867.02;;;30.38;22.32
70393;BME280;57812;59.294;18.084;2022-07-04T04:59:57;100865.45;;;30.74;22.24
70393;BME280;57812;59.294;18.084;2022-07-04T05:02:22;100862.09;;;31.18;22.00
70393;BME280;57812;59.294;18.084;2022-07-04T05:04:48;100861.99;;;30.29;22.02
70393;BME280;57812;59.294;18.084;2022-07-04T05:07:14;100861.39;;;30.50;22.15
70393;BME280;57812;59.294;18.084;2022-07-04T05:09:40;100859.74;;;30.37;21.89
70393;BME280;57812;59.294;18.084;2022-07-04T05:12:06;100858.55;;;30.89;21.74
70393;BME280;57812;59.294;18.084;2022-07-04T05:14:31;100853.53;;;30.97;21.67
70393;BME280;57812;59.294;18.084;2022-07-04T05:16:57;100849.16;;;31.22;21.45
70393;BME280;57812;59.294;18.084;2022-07-04T05:19:23;100846.16;;;30.69;21.70
70393;BME280;57812;59.294;18.084;2022-07-04T05:21:49;100848.54;;;31.54;21.17
70393;BME280;57812;59.294;18.084;2022-07-04T05:24:14;100847.75;;;31.45;21.26
70393;BME280;57812;59.294;18.084;2022-07-04T05:26:40;100841.35;;;31.49;21.14
70393;BME280;57812;59.294;18.084;2022-07-04T05:29:06;100837.66;;;31.84;20.90
70393;BME280;57812;59.294;18.084;2022-07-04T05:31:32;100837.92;;;30.83;21.02
70393;BME280;57812;59.294;18.084;2022-07-04T05:33:58;100828.42;;;31.41;20.84
70393;BME280;57812;59.294;18.084;2022-07-04T05:36:24;100830.66;;;31.21;20.82
70393;BME280;57812;59.294;18.084;2022-07-04T05:38:49;100819.22;;;31.24;20.84
70393;BME280;57812;59.294;18.084;2022-07-04T05:41:15;100814.04;;;31.05;20.65
70393;BME280;57812;59.294;18.084;2022-07-04T05:43:41;100812.54;;;31.67;20.47
70393;BME280;57812;59.294;18.084;2022-07-04T05:46:07;100807.71;;;31.34;20.79
70393;BME280;57812;59.294;18.084;2022-07-04T05:48:32;100809.84;;;31.83;20.44
70393;BME280;57812;59.294;18.084;2022-07-04T05:50:58;100807.01;;;30.79;21.04
70393;BME280;57812;59.294;18.084;2022-07-04T05:53:24;100809.48;;;31.44;20.81
70393;BME280;57812;59.294;18.084;2022-07-04T05:55:49;100803.58;;;31.26;20.78
70393;BME280;57812;59.294;18.084;2022-07-04T05:58:15;100796.81;;;31.16;20.70
70393;BME280;57812;59.294;18.084;2022-07-04T06:00:41;100802.00;;;31.89;20.64
70393;BME280;57812;59.294;18.084;2022-07-04T06:03:07;100794.59;;;30.80;20.85
70393;BME280;57812;59.294;18.084;2022-07-04T06:05:32;100789.23;;;31.92;20.23
70393;BME280;57812;59.294;18.084;2022-07-04T06:07:58;100793.20;;;31.11;20.65
70393;BME280;57812;59.294;18.084;2022-07-04T06:10:24;100789.65;;;31.48;20.59
70393;BME280;57812;59.294;18.084;2022-07-04T06:12:50;100795.99;;;31.46;20.52
70393;BME280;57812;59.294;18.084;2022-07-04T06:15:15;100795.68;;;30.32;21.03
70393;BME280;57812;59.294;18.084;2022-07-04T06:17:41;100797.38;;;31.25;20.06
70393;BME280;57812;59.294;18.084;2022-07-04T06:20:08;100798.20;;;31.97;19.50
70393;BME280;57812;59.294;18.084;2022-07-04T06:22:38;100801.09;;;32.39;19.30
70393;BME280;57812;59.294;18.084;2022-07-04T06:24:58;100798.23;;;31.39;19.79
70393;BME280;57812;59.294;18.084;2022-07-04T06:27:24;100797.80;;;31.93;19.56
70393;BME280;57812;59.294;18.084;2022-07-04T06:29:50;100792.03;;;31.20;19.82
70393;BME280;57812;59.294;18.084;2022-07-04T06:32:16;100793.13;;;31.05;19.74
70393;BME280;57812;59.294;18.084;2022-07-04T06:34:41;100786.26;;;31.27;19.51
70393;BME280;57812;59.294;18.084;2022-07-04T06:37:07;100789.49;;;31.12;19.53
70393;BME280;57812;59.294;18.084;2022-07-04T06:39:33;100787.72;;;31.34;19.67
70393;BME280;57812;59.294;18.084;2022-07-04T06:41:58;100786.17;;;31.35;19.64
70393;BME280;57812;59.294;18.084;2022-07-04T06:44:24;100780.58;;;31.54;20.01
70393;BME280;57812;59.294;18.084;2022-07-04T06:46:50;100774.24;;;31.73;19.93
70393;BME280;57812;59.294;18.084;2022-07-04T06:49:15;100767.45;;;31.27;20.03
70393;BME280;57812;59.294;18.084;2022-07-04T06:51:41;100771.06;;;32.13;19.56
70393;BME280;57812;59.294;18.084;2022-07-04T06:54:07;100775.89;;;31.87;19.59
70393;BME280;57812;59.294;18.084;2022-07-04T06:56:33;100778.55;;;31.42;19.92
70393;BME280;57812;59.294;18.084;2022-07-04T06:58:58;100777.67;;;32.00;19.75
70393;BME280;57812;59.294;18.084;2022-07-04T07:01:24;100774.42;;;31.46;19.88
70393;BME280;57812;59.294;18.084;2022-07-04T07:03:50;100768.57;;;30.70;22.17
70393;BME280;57812;59.294;18.084;2022-07-04T07:06:16;100772.33;;;31.88;18.81
70393;BME280;57812;59.294;18.084;2022-07-04T07:08:41;100771.80;;;32.11;18.75
70393;BME280;57812;59.294;18.084;2022-07-04T07:11:07;100776.44;;;32.80;18.55
70393;BME280;57812;59.294;18.084;2022-07-04T07:13:33;100780.58;;;31.19;21.01
70393;BME280;57812;59.294;18.084;2022-07-04T07:15:59;100782.77;;;32.19;18.96
70393;BME280;57812;59.294;18.084;2022-07-04T07:18:24;100785.74;;;32.07;18.90
70393;BME280;57812;59.294;18.084;2022-07-04T07:20:50;100784.33;;;31.99;19.14
70393;BME280;57812;59.294;18.084;2022-07-04T07:23:16;100781.09;;;32.36;18.75
70393;BME280;57812;59.294;18.084;2022-07-04T07:25:42;100770.20;;;31.94;19.17
70393;BME280;57812;59.294;18.084;2022-07-04T07:28:08;100755.77;;;32.31;19.08
70393;BME280;57812;59.294;18.084;2022-07-04T07:30:33;100748.57;;;32.02;18.99
70393;BME280;57812;59.294;18.084;2022-07-04T07:32:59;100754.30;;;31.89;18.85
70393;BME280;57812;59.294;18.084;2022-07-04T07:35:25;100762.08;;;31.97;19.27
70393;BME280;57812;59.294;18.084;2022-07-04T07:37:50;100759.56;;;31.74;19.08
70393;BME280;57812;59.294;18.084;2022-07-04T07:40:16;100758.34;;;32.76;18.12
70393;BME280;57812;59.294;18.084;2022-07-04T07:42:42;100756.61;;;32.17;18.32
70393;BME280;57812;59.294;18.084;2022-07-04T07:45:08;100762.53;;;32.11;18.13
70393;BME280;57812;59.294;18.084;2022-07-04T07:47:33;100760.87;;;31.56;18.14
70393;BME280;57812;59.294;18.084;2022-07-04T07:49:59;100760.22;;;32.03;17.85
70393;BME280;57812;59.294;18.084;2022-07-04T07:52:25;100763.81;;;32.46;17.59
70393;BME280;57812;59.294;18.084;2022-07-04T07:54:50;100760.54;;;31.77;17.82
70393;BME280;57812;59.294;18.084;2022-07-04T07:57:16;100756.60;;;31.45;18.08
70393;BME280;57812;59.294;18.084;2022-07-04T07:59:42;100752.50;;;32.23;17.54
70393;BME280;57812;59.294;18.084;2022-07-04T08:02:08;100752.03;;;32.46;17.16
70393;BME280;57812;59.294;18.084;2022-07-04T08:04:33;100741.28;;;31.95;17.79
70393;BME280;57812;59.294;18.084;2022-07-04T08:06:59;100741.67;;;31.64;17.72
70393;BME280;57812;59.294;18.084;2022-07-04T08:09:25;100740.94;;;31.53;18.36
70393;BME280;57812;59.294;18.084;2022-07-04T08:11:51;100740.97;;;32.11;18.10
70393;BME280;57812;59.294;18.084;2022-07-04T08:14:16;100738.81;;;32.07;17.66
70393;BME280;57812;59.294;18.084;2022-07-04T08:16:42;100733.90;;;32.90;17.36
70393;BME280;57812;59.294;18.084;2022-07-04T08:19:08;100735.90;;;32.55;17.78
70393;BME280;57812;59.294;18.084;2022-07-04T08:21:34;100739.41;;;32.56;17.71
70393;BME280;57812;59.294;18.084;2022-07-04T08:23:59;100743.33;;;32.74;17.63
70393;BME280;57812;59.294;18.084;2022-07-04T08:26:25;100734.96;;;32.74;17.85
70393;BME280;57812;59.294;18.084;2022-07-04T08:28:51;100732.14;;;32.51;17.98
70393;BME280;57812;59.294;18.084;2022-07-04T08:31:17;100730.88;;;32.15;18.20
70393;BME280;57812;59.294;18.084;2022-07-04T08:33:42;100724.16;;;32.32;18.04
70393;BME280;57812;59.294;18.084;2022-07-04T08:36:08;100723.87;;;32.24;18.25
70393;BME280;57812;59.294;18.084;2022-07-04T08:38:34;100715.46;;;31.83;18.42
70393;BME280;57812;59.294;18.084;2022-07-04T08:41:02;100708.42;;;31.69;18.62
70393;BME280;57812;59.294;18.084;2022-07-04T08:43:25;100716.24;;;31.57;18.36
70393;BME280;57812;59.294;18.084;2022-07-04T08:45:53;100714.84;;;31.82;18.03
70393;BME280;57812;59.294;18.084;2022-07-04T08:48:18;100712.47;;;32.01;18.00
70393;BME280;57812;59.294;18.084;2022-07-04T08:50:44;100721.90;;;32.26;17.72
70393;BME280;57812;59.294;18.084;2022-07-04T08:53:11;100725.79;;;32.89;17.58
70393;BME280;57812;59.294;18.084;2022-07-04T08:55:35;100720.44;;;32.19;17.55
70393;BME280;57812;59.294;18.084;2022-07-04T08:58:02;100706.34;;;31.64;17.85
70393;BME280;57812;59.294;18.084;2022-07-04T09:00:25;100703.39;;;31.55;17.98
70393;BME280;57812;59.294;18.084;2022-07-04T09:02:51;100696.15;;;31.72;18.07
70393;BME280;57812;59.294;18.084;2022-07-04T09:05:18;100699.59;;;31.28;18.06
70393;BME280;57812;59.294;18.084;2022-07-04T09:07:44;100705.93;;;31.48;17.89
70393;BME280;57812;59.294;18.084;2022-07-04T09:10:09;100707.61;;;32.31;17.40
70393;BME280;57812;59.294;18.084;2022-07-04T09:12:34;100702.47;;;33.05;17.18
70393;BME280;57812;59.294;18.084;2022-07-04T09:15:00;100709.48;;;33.29;16.29
70393;BME280;57812;59.294;18.084;2022-07-04T09:17:25;100705.83;;;33.09;16.62
70393;BME280;57812;59.294;18.084;2022-07-04T09:22:17;100692.35;;;33.23;16.54
70393;BME280;57812;59.294;18.084;2022-07-04T09:24:45;100694.43;;;32.88;16.45
70393;BME280;57812;59.294;18.084;2022-07-04T09:27:08;100689.81;;;32.45;16.61
70393;BME280;57812;59.294;18.084;2022-07-04T09:29:37;100684.80;;;31.68;16.93
70393;BME280;57812;59.294;18.084;2022-07-04T09:32:00;100685.05;;;31.96;16.92
70393;BME280;57812;59.294;18.084;2022-07-04T09:34:26;100682.40;;;31.97;17.12
70393;BME280;57812;59.294;18.084;2022-07-04T09:36:52;100686.51;;;32.72;16.69
70393;BME280;57812;59.294;18.084;2022-07-04T09:39:18;100683.18;;;32.61;16.56
70393;BME280;57812;59.294;18.084;2022-07-04T09:41:49;100684.77;;;32.76;16.35
70393;BME280;57812;59.294;18.084;2022-07-04T09:44:08;100687.82;;;31.87;17.06
70393;BME280;57812;59.294;18.084;2022-07-04T09:46:34;100693.48;;;32.84;16.21
70393;BME280;57812;59.294;18.084;2022-07-04T09:49:00;100698.91;;;32.11;16.74
70393;BME280;57812;59.294;18.084;2022-07-04T09:53:51;100699.66;;;32.35;16.81
70393;BME280;57812;59.294;18.084;2022-07-04T09:56:19;100699.69;;;31.85;16.83
70393;BME280;57812;59.294;18.084;2022-07-04T10:01:09;100699.15;;;31.74;16.62
70393;BME280;57812;59.294;18.084;2022-07-04T10:03:34;100699.72;;;32.19;16.53
70393;BME280;57812;59.294;18.084;2022-07-04T10:06:03;100695.44;;;32.16;16.73
70393;BME280;57812;59.294;18.084;2022-07-04T10:08:26;100691.13;;;31.91;17.04
70393;BME280;57812;59.294;18.084;2022-07-04T10:10:56;100686.16;;;31.63;17.38
70393;BME280;57812;59.294;18.084;2022-07-04T10:13:17;100684.39;;;32.35;17.84
70393;BME280;57812;59.294;18.084;2022-07-04T10:15:43;100683.63;;;32.14;17.11
70393;BME280;57812;59.294;18.084;2022-07-04T10:18:09;100676.54;;;32.22;17.05
70393;BME280;57812;59.294;18.084;2022-07-04T10:20:35;100678.63;;;31.83;17.65
70393;BME280;57812;59.294;18.084;2022-07-04T10:23:01;100673.30;;;31.45;17.57
70393;BME280;57812;59.294;18.084;2022-07-04T10:25:27;100676.42;;;31.40;17.88
70393;BME280;57812;59.294;18.084;2022-07-04T10:27:52;100674.56;;;32.08;18.02
70393;BME280;57812;59.294;18.084;2022-07-04T10:30:23;100680.25;;;30.70;18.53
70393;BME280;57812;59.294;18.084;2022-07-04T10:32:45;100684.41;;;31.01;18.54
70393;BME280;57812;59.294;18.084;2022-07-04T10:35:13;100684.80;;;31.76;18.38
70393;BME280;57812;59.294;18.084;2022-07-04T10:40:01;100677.31;;;30.32;19.00
70393;BME280;57812;59.294;18.084;2022-07-04T10:42:28;100680.11;;;32.55;17.78
70393;BME280;57812;59.294;18.084;2022-07-04T10:44:52;100688.48;;;32.47;18.01
70393;BME280;57812;59.294;18.084;2022-07-04T10:47:22;100692.23;;;32.35;18.10
70393;BME280;57812;59.294;18.084;2022-07-04T10:49:48;100677.87;;;33.42;17.73
70393;BME280;57812;59.294;18.084;2022-07-04T10:52:11;100685.58;;;33.14;17.75
70393;BME280;57812;59.294;18.084;2022-07-04T10:54:37;100687.42;;;31.81;18.39
70393;BME280;57812;59.294;18.084;2022-07-04T10:57:10;100691.19;;;31.82;18.57
70393;BME280;57812;59.294;18.084;2022-07-04T10:59:29;100681.76;;;31.89;18.69
70393;BME280;57812;59.294;18.084;2022-07-04T11:06:49;100662.88;;;33.17;17.66
70393;BME280;57812;59.294;18.084;2022-07-04T11:09:13;100664.81;;;33.42;17.75
70393;BME280;57812;59.294;18.084;2022-07-04T11:18:53;100683.23;;;32.13;19.71
70393;BME280;57812;59.294;18.084;2022-07-04T11:21:21;100685.79;;;31.89;19.85
70393;BME280;57812;59.294;18.084;2022-07-04T11:23:50;100682.83;;;32.47;19.69
70393;BME280;57812;59.294;18.084;2022-07-04T11:26:10;100679.93;;;32.98;19.19
70393;BME280;57812;59.294;18.084;2022-07-04T11:28:36;100677.72;;;32.46;19.24
70393;BME280;57812;59.294;18.084;2022-07-04T11:31:02;100677.47;;;32.62;19.24
70393;BME280;57812;59.294;18.084;2022-07-04T11:33:30;100674.22;;;31.71;19.95
70393;BME280;57812;59.294;18.084;2022-07-04T11:36:00;100669.76;;;31.94;19.71
70393;BME280;57812;59.294;18.084;2022-07-04T11:38:19;100665.44;;;31.56;20.21
70393;BME280;57812;59.294;18.084;2022-07-04T11:40:45;100659.32;;;31.30;20.10
70393;BME280;57812;59.294;18.084;2022-07-04T11:43:11;100655.80;;;32.61;19.13
70393;BME280;57812;59.294;18.084;2022-07-04T11:45:36;100655.96;;;32.15;18.97
70393;BME280;57812;59.294;18.084;2022-07-04T11:48:02;100657.38;;;32.22;19.01
70393;BME280;57812;59.294;18.084;2022-07-04T11:50:28;100663.02;;;31.92;19.72
70393;BME280;57812;59.294;18.084;2022-07-04T11:52:54;100668.68;;;31.11;20.01
70393;BME280;57812;59.294;18.084;2022-07-04T11:55:20;100667.83;;;30.89;20.06
70393;BME280;57812;59.294;18.084;2022-07-04T11:57:47;100665.01;;;31.68;19.54
70393;BME280;57812;59.294;18.084;2022-07-04T12:00:13;100647.36;;;31.39;19.55
70393;BME280;57812;59.294;18.084;2022-07-04T12:02:37;100636.33;;;31.95;19.29
70393;BME280;57812;59.294;18.084;2022-07-04T12:05:07;100644.59;;;31.56;19.14
70393;BME280;57812;59.294;18.084;2022-07-04T12:07:30;100658.23;;;32.30;18.96
70393;BME280;57812;59.294;18.084;2022-07-04T12:09:55;100661.97;;;31.96;18.68
70393;BME280;57812;59.294;18.084;2022-07-04T12:12:21;100653.52;;;31.77;19.28
70393;BME280;57812;59.294;18.084;2022-07-04T12:17:14;100627.42;;;32.20;18.41
70393;BME280;57812;59.294;18.084;2022-07-04T12:19:37;100629.93;;;31.11;19.11
70393;BME280;57812;59.294;18.084;2022-07-04T12:22:03;100625.41;;;31.85;18.70
70393;BME280;57812;59.294;18.084;2022-07-04T12:26:55;100605.11;;;31.43;18.78
70393;BME280;57812;59.294;18.084;2022-07-04T12:29:22;100589.53;;;30.66;18.90
70393;BME280;57812;59.294;18.084;2022-07-04T12:31:51;100573.71;;;31.13;18.67
70393;BME280;57812;59.294;18.084;2022-07-04T12:34:14;100569.30;;;31.08;18.89
70393;BME280;57812;59.294;18.084;2022-07-04T12:39:04;100560.10;;;31.14;18.86
70393;BME280;57812;59.294;18.084;2022-07-04T12:41:30;100572.97;;;31.66;18.73
70393;BME280;57812;59.294;18.084;2022-07-04T12:43:56;100569.65;;;30.64;19.20
70393;BME280;57812;59.294;18.084;2022-07-04T12:46:27;100569.49;;;31.30;19.47
70393;BME280;57812;59.294;18.084;2022-07-04T12:48:49;100564.23;;;32.43;18.18
70393;BME280;57812;59.294;18.084;2022-07-04T12:51:14;100566.50;;;31.33;18.96
70393;BME280;57812;59.294;18.084;2022-07-04T12:53:40;100564.57;;;30.25;19.94
70393;BME280;57812;59.294;18.084;2022-07-04T12:56:05;100559.92;;;31.97;18.61
70393;BME280;57812;59.294;18.084;2022-07-04T12:58:30;100555.95;;;32.21;18.22
70393;BME280;57812;59.294;18.084;2022-07-04T13:00:56;100552.76;;;31.91;18.30